Time,TemperatureF,DewpointF,PressureIn,WindDirection,WindDirectionDegrees,WindSpeedMPH,WindSpeedGustMPH,Humidity,HourlyPrecipIn,Conditions,Clouds,dailyrainin,SolarRadiationWatts/m^2,SoftwareType,DateUTC
2013-02-22 00:11:00,20.0,16.0,-100.00,SE,137,3.0,4.0,86,-99.99,,,-99.99,0.010000,,2013-02-22 07:11:00,
2013-02-22 00:21:00,20.0,16.0,-100.00,SE,137,3.0,4.0,86,-99.99,,,-99.99,0.010000,,2013-02-22 07:21:00,
2013-02-22 00:31:00,20.0,16.0,-100.00,SSE,153,2.0,2.0,86,-99.99,,,-99.99,0.030000,,2013-02-22 07:31:00,
2013-02-22 00:42:00,20.0,16.0,-100.00,SSE,167,3.0,4.0,86,-99.99,,,-99.99,0.010000,,2013-02-22 07:42:00,
2013-02-22 00:51:00,20.0,16.0,-100.00,South,177,4.0,4.0,86,-99.99,,,-99.99,0.010000,,2013-02-22 07:51:00,
2013-02-22 01:01:00,19.0,15.0,-100.00,South,176,4.0,5.0,85,-99.99,,,-99.99,0.000000,,2013-02-22 08:01:00,
2013-02-22 01:11:00,19.0,15.0,-100.00,South,176,4.0,5.0,85,-99.99,,,-99.99,0.000000,,2013-02-22 08:11:00,
2013-02-22 01:21:00,18.0,14.0,-100.00,SSE,160,2.0,4.0,85,-99.99,,,-99.99,0.000000,,2013-02-22 08:21:00,
2013-02-22 01:31:00,18.0,14.0,-100.00,SW,222,3.0,3.0,85,-99.99,,,-99.99,0.000000,,2013-02-22 08:31:00,
2013-02-22 01:41:00,18.0,14.0,-100.00,SW,222,3.0,3.0,85,-99.99,,,-99.99,0.000000,,2013-02-22 08:41:00,
2013-02-22 01:52:00,18.0,14.0,-100.00,SE,137,2.0,3.0,85,-99.99,,,-99.99,0.000000,,2013-02-22 08:52:00,
2013-02-22 02:03:00,18.0,15.0,-100.00,SE,140,4.0,4.0,85,-99.99,,,-99.99,0.010000,,2013-02-22 09:03:00,
2013-02-22 02:11:00,19.0,16.0,-100.00,SSE,166,2.0,3.0,86,-99.99,,,-99.99,0.000000,,2013-02-22 09:11:00,
2013-02-22 02:41:00,19.0,15.0,-100.00,SSE,164,2.0,3.0,87,-99.99,,,-99.99,0.000000,,2013-02-22 09:41:00,
2013-02-22 06:41:00,20.0,15.0,-100.00,NE,49,0.0,2.0,82,-99.99,,,-99.99,0.000000,,2013-02-22 13:41:00,
2013-02-22 07:01:00,20.0,15.0,-100.00,East,100,3.0,4.0,79,-99.99,,,-99.99,0.000000,,2013-02-22 14:01:00,
2013-02-22 07:21:00,20.0,15.0,-100.00,ESE,103,2.0,4.0,78,-99.99,,,-99.99,0.420000,,2013-02-22 14:21:00,
2013-02-22 07:41:00,21.0,15.0,-100.00,South,183,3.0,4.0,78,-99.99,,,-99.99,10.330000,,2013-02-22 14:41:00,
2013-02-22 08:01:00,21.0,16.0,-100.00,WSW,244,1.0,3.0,81,-99.99,,,-99.99,17.780001,,2013-02-22 15:01:00,
2013-02-22 08:21:00,21.0,16.0,-100.00,WNW,295,1.0,2.0,79,-99.99,,,-99.99,19.330000,,2013-02-22 15:21:00,
2013-02-22 08:31:00,21.0,16.0,-100.00,WNW,295,1.0,2.0,79,-99.99,,,-99.99,19.330000,,2013-02-22 15:31:00,
2013-02-22 08:41:00,22.0,16.0,-100.00,South,172,3.0,4.0,75,-99.99,,,-99.99,63.709999,,2013-02-22 15:41:00,
2013-02-22 08:51:00,22.0,16.0,-100.00,SSE,164,4.0,5.0,76,-99.99,,,-99.99,92.599998,,2013-02-22 15:51:00,
2013-02-22 09:01:00,22.0,16.0,-100.00,SE,145,3.0,6.0,76,-99.99,,,-99.99,94.400002,,2013-02-22 16:01:00,
2013-02-22 09:11:00,23.0,16.0,-100.00,SSE,156,4.0,6.0,76,-99.99,,,-99.99,111.099998,,2013-02-22 16:11:00,
2013-02-22 09:21:00,23.0,16.0,-100.00,SSE,156,4.0,6.0,76,-99.99,,,-99.99,111.099998,,2013-02-22 16:21:00,
2013-02-22 09:31:00,24.0,17.0,-100.00,SSE,147,3.0,4.0,75,-99.99,,,-99.99,131.800003,,2013-02-22 16:31:00,
2013-02-22 09:41:00,24.0,17.0,-100.00,SSE,147,3.0,4.0,75,-99.99,,,-99.99,131.800003,,2013-02-22 16:41:00,
2013-02-22 09:52:00,25.0,18.0,-100.00,SE,144,2.0,5.0,72,-99.99,,,-99.99,213.899994,,2013-02-22 16:52:00,
2013-02-22 10:01:00,25.0,18.0,-100.00,SE,144,2.0,5.0,72,-99.99,,,-99.99,213.899994,,2013-02-22 17:01:00,
2013-02-22 10:11:00,26.0,18.0,-100.00,SE,141,0.0,2.0,72,-99.99,,,-99.99,255.600006,,2013-02-22 17:11:00,
2013-02-22 10:21:00,27.0,18.0,-100.00,East,86,2.0,4.0,69,-99.99,,,-99.99,269.700012,,2013-02-22 17:21:00,
2013-02-22 10:31:00,26.0,19.0,-100.00,NNW,342,3.0,4.0,72,-99.99,,,-99.99,280.100006,,2013-02-22 17:31:00,
2013-02-22 10:41:00,26.0,19.0,-100.00,NNW,342,3.0,4.0,72,-99.99,,,-99.99,280.100006,,2013-02-22 17:41:00,
2013-02-22 11:01:00,28.0,18.0,-100.00,NNE,19,4.0,5.0,66,-99.99,,,-99.99,595.599976,,2013-02-22 18:01:00,
2013-02-22 11:11:00,29.0,19.0,-100.00,NE,34,4.0,5.0,65,-99.99,,,-99.99,371.799988,,2013-02-22 18:11:00,
2013-02-22 11:22:00,29.0,19.0,-100.00,NE,56,1.0,5.0,66,-99.99,,,-99.99,743.700012,,2013-02-22 18:22:00,
2013-02-22 11:31:00,29.0,19.0,-100.00,NE,56,1.0,5.0,66,-99.99,,,-99.99,743.700012,,2013-02-22 18:31:00,
2013-02-22 11:41:00,32.0,19.0,-100.00,West,260,2.0,5.0,60,-99.99,,,-99.99,820.000000,,2013-02-22 18:41:00,
2013-02-22 12:01:00,32.0,20.0,-100.00,East,83,2.0,4.0,60,-99.99,,,-99.99,405.399994,,2013-02-22 19:01:00,
2013-02-22 12:31:00,32.0,20.0,-100.00,NNW,335,3.0,7.0,61,-99.99,,,-99.99,380.200012,,2013-02-22 19:31:00,
2013-02-22 12:51:00,30.0,20.0,-100.00,NE,50,5.0,9.0,66,-99.99,,,-99.99,305.399994,,2013-02-22 19:51:00,
2013-02-22 13:01:00,31.0,20.0,-100.00,NNE,30,3.0,4.0,62,-99.99,,,-99.99,361.299988,,2013-02-22 20:01:00,
2013-02-22 13:11:00,31.0,20.0,-100.00,NNE,30,3.0,4.0,62,-99.99,,,-99.99,361.299988,,2013-02-22 20:11:00,
2013-02-22 13:21:00,31.0,20.0,-100.00,NNE,30,3.0,4.0,62,-99.99,,,-99.99,361.299988,,2013-02-22 20:21:00,
2013-02-22 13:41:00,33.0,20.0,-100.00,WNW,283,5.0,8.0,56,-99.99,,,-99.99,280.700012,,2013-02-22 20:41:00,
2013-02-22 13:52:00,34.0,19.0,-100.00,WNW,299,12.0,14.0,54,-99.99,,,-99.99,646.799988,,2013-02-22 20:52:00,
2013-02-22 14:21:00,36.0,19.0,-100.00,WNW,292,12.0,16.0,50,-99.99,,,-99.99,847.000000,,2013-02-22 21:21:00,
2013-02-22 14:31:00,35.0,17.0,-100.00,NW,326,10.0,13.0,46,-99.99,,,-99.99,536.500000,,2013-02-22 21:31:00,
2013-02-22 14:41:00,35.0,17.0,-100.00,West,279,15.0,18.0,48,-99.99,,,-99.99,390.000000,,2013-02-22 21:41:00,
2013-02-22 14:51:00,35.0,17.0,-100.00,West,279,15.0,18.0,48,-99.99,,,-99.99,390.000000,,2013-02-22 21:51:00,
2013-02-22 15:01:00,37.0,18.0,-100.00,West,275,9.0,15.0,46,-99.99,,,-99.99,746.599976,,2013-02-22 22:01:00,
2013-02-22 15:11:00,37.0,17.0,-100.00,West,261,15.0,17.0,43,-99.99,,,-99.99,620.099976,,2013-02-22 22:11:00,
2013-02-22 15:21:00,37.0,17.0,-100.00,West,261,15.0,17.0,43,-99.99,,,-99.99,620.099976,,2013-02-22 22:21:00,
2013-02-22 15:41:00,36.0,14.0,-100.00,WNW,284,8.0,11.0,39,-99.99,,,-99.99,319.500000,,2013-02-22 22:41:00,
2013-02-22 15:51:00,36.0,15.0,-100.00,West,277,11.0,16.0,42,-99.99,,,-99.99,409.600006,,2013-02-22 22:51:00,
2013-02-22 16:01:00,36.0,16.0,-100.00,West,263,8.0,15.0,43,-99.99,,,-99.99,423.000000,,2013-02-22 23:01:00,
2013-02-22 16:11:00,36.0,16.0,-100.00,West,280,13.0,14.0,45,-99.99,,,-99.99,380.799988,,2013-02-22 23:11:00,
2013-02-22 16:21:00,36.0,16.0,-100.00,West,280,13.0,14.0,45,-99.99,,,-99.99,380.799988,,2013-02-22 23:21:00,
2013-02-22 16:31:00,36.0,16.0,-100.00,West,280,13.0,14.0,45,-99.99,,,-99.99,380.799988,,2013-02-22 23:31:00,
2013-02-22 16:41:00,35.0,16.0,-100.00,West,271,11.0,13.0,45,-99.99,,,-99.99,241.699997,,2013-02-22 23:41:00,
2013-02-22 17:01:00,35.0,15.0,-100.00,WNW,287,10.0,13.0,43,-99.99,,,-99.99,254.199997,,2013-02-23 00:01:00,
2013-02-22 17:11:00,35.0,15.0,-100.00,WNW,287,10.0,13.0,43,-99.99,,,-99.99,254.199997,,2013-02-23 00:11:00,
2013-02-22 17:21:00,35.0,15.0,-100.00,West,261,14.0,16.0,44,-99.99,,,-99.99,210.300003,,2013-02-23 00:21:00,
2013-02-22 17:51:00,34.0,16.0,-100.00,West,259,8.0,16.0,46,-99.99,,,-99.99,110.199997,,2013-02-23 00:51:00,
2013-02-22 18:11:00,33.0,15.0,-100.00,WNW,298,7.0,11.0,47,-99.99,,,-99.99,31.670000,,2013-02-23 01:11:00,
2013-02-22 18:31:00,32.0,14.0,-100.00,NW,314,2.0,4.0,46,-99.99,,,-99.99,5.870000,,2013-02-23 01:31:00,
2013-02-22 18:41:00,32.0,14.0,-100.00,NW,314,2.0,4.0,46,-99.99,,,-99.99,5.870000,,2013-02-23 01:41:00,
2013-02-22 18:51:00,32.0,15.0,-100.00,NW,316,2.0,2.0,48,-99.99,,,-99.99,0.660000,,2013-02-23 01:51:00,
2013-02-22 19:11:00,30.0,19.0,-100.00,ESE,114,1.0,2.0,64,-99.99,,,-99.99,0.010000,,2013-02-23 02:11:00,
2013-02-22 19:31:00,28.0,19.0,-100.00,SSE,151,4.0,4.0,67,-99.99,,,-99.99,0.000000,,2013-02-23 02:31:00,
2013-02-22 19:41:00,28.0,19.0,-100.00,SSE,151,4.0,4.0,67,-99.99,,,-99.99,0.000000,,2013-02-23 02:41:00,
2013-02-22 19:52:00,27.0,18.0,-100.00,South,175,6.0,6.0,68,-99.99,,,-99.99,0.030000,,2013-02-23 02:52:00,
2013-02-22 20:01:00,27.0,18.0,-100.00,South,175,6.0,6.0,68,-99.99,,,-99.99,0.030000,,2013-02-23 03:01:00,
2013-02-22 20:31:00,28.0,19.0,-100.00,South,188,5.0,6.0,67,-99.99,,,-99.99,0.020000,,2013-02-23 03:31:00,
2013-02-22 20:51:00,27.0,18.0,-100.00,South,180,4.0,5.0,70,-99.99,,,-99.99,0.000000,,2013-02-23 03:51:00,
2013-02-22 21:31:00,27.0,18.0,-100.00,SSW,199,1.0,5.0,68,-99.99,,,-99.99,0.080000,,2013-02-23 04:31:00,
2013-02-22 22:41:00,24.0,17.0,-100.00,ESE,103,6.0,7.0,74,-99.99,,,-99.99,0.020000,,2013-02-23 05:41:00,
2013-02-22 22:52:00,24.0,18.0,-100.00,South,182,4.0,5.0,74,-99.99,,,-99.99,0.040000,,2013-02-23 05:52:00,
2013-02-22 23:21:00,24.0,17.0,-100.00,SW,223,0.0,3.0,75,-99.99,,,-99.99,0.160000,,2013-02-23 06:21:00,
2013-02-22 23:31:00,24.0,17.0,-100.00,SW,223,0.0,3.0,75,-99.99,,,-99.99,0.160000,,2013-02-23 06:31:00,
2013-02-22 23:51:00,23.0,17.0,-100.00,SSE,168,2.0,3.0,79,-99.99,,,-99.99,0.090000,,2013-02-23 06:51:00,